sensor_id;sensor_type;location;lat;lon;timestamp;pressure;altitude;pressure_sealevel;temperature;humidity
62632;BME280;48703;51.248;-0.546;2023-02-28T00:00:06;102610;;;2.98;75.88
62632;BME280;48703;51.248;-0.546;2023-02-28T00:03:07;102615;;;2.94;75.91
62632;BME280;48703;51.248;-0.546;2023-02-28T00:06:09;102618;;;2.87;76.42
62632;BME280;48703;51.248;-0.546;2023-02-28T00:09:11;102621;;;2.80;76.78
62632;BME280;48703;51.248;-0.546;2023-02-28T00:12:13;102621;;;2.75;76.92
62632;BME280;48703;51.248;-0.546;2023-02-28T00:15:15;102619;;;2.68;77.49
62632;BME280;48703;51.248;-0.546;2023-02-28T00:18:17;102620;;;2.65;77.75
62632;BME280;48703;51.248;-0.546;2023-02-28T00:21:19;102624;;;2.61;77.60
62632;BME280;48703;51.248;-0.546;2023-02-28T00:24:21;102624;;;2.57;78.19
62632;BME280;48703;51.248;-0.546;2023-02-28T00:27:23;102627;;;2.49;79.17
62632;BME280;48703;51.248;-0.546;2023-02-28T00:30:25;102627;;;2.44;78.42
62632;BME280;48703;51.248;-0.546;2023-02-28T00:33:27;102625;;;2.36;79.14
62632;BME280;48703;51.248;-0.546;2023-02-28T00:36:29;102627;;;2.29;78.95
62632;BME280;48703;51.248;-0.546;2023-02-28T00:39:31;102626;;;2.23;79.33
62632;BME280;48703;51.248;-0.546;2023-02-28T00:42:32;102629;;;2.18;79.15
62632;BME280;48703;51.248;-0.546;2023-02-28T00:45:34;102630;;;2.16;79.11
62632;BME280;48703;51.248;-0.546;2023-02-28T00:48:36;102631;;;2.10;79.40
62632;BME280;48703;51.248;-0.546;2023-02-28T00:51:38;102635;;;2.03;79.90
62632;BME280;48703;51.248;-0.546;2023-02-28T00:54:40;102635;;;1.99;79.99
62632;BME280;48703;51.248;-0.546;2023-02-28T00:57:42;102636;;;1.99;79.75
62632;BME280;48703;51.248;-0.546;2023-02-28T01:00:44;102640;;;1.98;79.94
62632;BME280;48703;51.248;-0.546;2023-02-28T01:03:46;102643;;;1.92;80.36
62632;BME280;48703;51.248;-0.546;2023-02-28T01:06:48;102638;;;1.87;80.15
62632;BME280;48703;51.248;-0.546;2023-02-28T01:09:50;102638;;;1.79;81.14
62632;BME280;48703;51.248;-0.546;2023-02-28T01:12:52;102639;;;1.75;80.66
62632;BME280;48703;51.248;-0.546;2023-02-28T01:15:54;102640;;;1.67;80.54
62632;BME280;48703;51.248;-0.546;2023-02-28T01:18:56;102644;;;1.62;81.35
62632;BME280;48703;51.248;-0.546;2023-02-28T01:22:00;102648;;;1.55;81.04
62632;BME280;48703;51.248;-0.546;2023-02-28T01:24:59;102651;;;1.49;82.09
62632;BME280;48703;51.248;-0.546;2023-02-28T01:28:01;102647;;;1.45;81.57
62632;BME280;48703;51.248;-0.546;2023-02-28T01:31:03;102647;;;1.41;82.40
62632;BME280;48703;51.248;-0.546;2023-02-28T01:34:05;102644;;;1.35;82.01
62632;BME280;48703;51.248;-0.546;2023-02-28T01:37:07;102644;;;1.29;82.16
62632;BME280;48703;51.248;-0.546;2023-02-28T01:40:10;102651;;;1.24;81.92
62632;BME280;48703;51.248;-0.546;2023-02-28T01:43:15;102655;;;1.23;82.10
62632;BME280;48703;51.248;-0.546;2023-02-28T01:46:13;102654;;;1.18;82.23
62632;BME280;48703;51.248;-0.546;2023-02-28T01:49:15;102653;;;1.14;82.27
62632;BME280;48703;51.248;-0.546;2023-02-28T01:52:17;102653;;;1.07;82.49
62632;BME280;48703;51.248;-0.546;2023-02-28T01:55:19;102656;;;1.01;82.72
62632;BME280;48703;51.248;-0.546;2023-02-28T01:58:21;102658;;;0.94;83.37
62632;BME280;48703;51.248;-0.546;2023-02-28T02:01:23;102654;;;0.91;82.88
62632;BME280;48703;51.248;-0.546;2023-02-28T02:04:26;102654;;;0.88;82.95
62632;BME280;48703;51.248;-0.546;2023-02-28T02:07:26;102656;;;0.84;82.85
62632;BME280;48703;51.248;-0.546;2023-02-28T02:10:30;102654;;;0.81;83.39
62632;BME280;48703;51.248;-0.546;2023-02-28T02:13:34;102656;;;0.79;83.38
62632;BME280;48703;51.248;-0.546;2023-02-28T02:16:34;102653;;;0.75;83.21
62632;BME280;48703;51.248;-0.546;2023-02-28T02:19:44;102654;;;0.70;83.13
62632;BME280;48703;51.248;-0.546;2023-02-28T02:22:43;102653;;;0.66;83.50
62632;BME280;48703;51.248;-0.546;2023-02-28T02:25:39;102652;;;0.65;83.17
62632;BME280;48703;51.248;-0.546;2023-02-28T02:28:46;102653;;;0.63;83.26
62632;BME280;48703;51.248;-0.546;2023-02-28T02:31:47;102652;;;0.58;84.24
62632;BME280;48703;51.248;-0.546;2023-02-28T02:34:47;102652;;;0.57;83.48
62632;BME280;48703;51.248;-0.546;2023-02-28T02:37:47;102654;;;0.55;84.25
62632;BME280;48703;51.248;-0.546;2023-02-28T02:40:50;102648;;;0.49;84.56
62632;BME280;48703;51.248;-0.546;2023-02-28T02:43:51;102649;;;0.46;83.95
62632;BME280;48703;51.248;-0.546;2023-02-28T02:46:52;102645;;;0.44;84.62
62632;BME280;48703;51.248;-0.546;2023-02-28T02:49:55;102646;;;0.41;84.21
62632;BME280;48703;51.248;-0.546;2023-02-28T02:52:56;102648;;;0.39;84.46
62632;BME280;48703;51.248;-0.546;2023-02-28T02:55:57;102647;;;0.37;84.81
62632;BME280;48703;51.248;-0.546;2023-02-28T02:59:00;102643;;;0.35;85.03
62632;BME280;48703;51.248;-0.546;2023-02-28T03:02:02;102641;;;0.32;85.15
62632;BME280;48703;51.248;-0.546;2023-02-28T03:05:04;102640;;;0.27;85.06
62632;BME280;48703;51.248;-0.546;2023-02-28T03:08:05;102641;;;0.22;84.87
62632;BME280;48703;51.248;-0.546;2023-02-28T03:11:11;102641;;;0.22;83.89
62632;BME280;48703;51.248;-0.546;2023-02-28T03:14:14;102639;;;0.22;85.20
62632;BME280;48703;51.248;-0.546;2023-02-28T03:17:17;102635;;;0.17;85.85
62632;BME280;48703;51.248;-0.546;2023-02-28T03:20:15;102636;;;0.12;85.24
62632;BME280;48703;51.248;-0.546;2023-02-28T03:23:16;102633;;;0.09;85.25
62632;BME280;48703;51.248;-0.546;2023-02-28T03:26:18;102634;;;0.10;85.35
62632;BME280;48703;51.248;-0.546;2023-02-28T03:29:20;102635;;;0.08;84.70
62632;BME280;48703;51.248;-0.546;2023-02-28T03:32:21;102635;;;0.09;85.39
62632;BME280;48703;51.248;-0.546;2023-02-28T03:35:23;102635;;;0.04;85.43
62632;BME280;48703;51.248;-0.546;2023-02-28T03:38:26;102633;;;-0.02;85.19
62632;BME280;48703;51.248;-0.546;2023-02-28T03:41:27;102632;;;-0.05;85.31
62632;BME280;48703;51.248;-0.546;2023-02-28T03:44:29;102635;;;-0.07;85.25
62632;BME280;48703;51.248;-0.546;2023-02-28T03:47:31;102639;;;-0.08;85.28
62632;BME280;48703;51.248;-0.546;2023-02-28T03:50:34;102644;;;-0.08;85.55
62632;BME280;48703;51.248;-0.546;2023-02-28T03:53:34;102640;;;-0.15;85.71
62632;BME280;48703;51.248;-0.546;2023-02-28T03:56:37;102644;;;-0.23;85.92
62632;BME280;48703;51.248;-0.546;2023-02-28T03:59:39;102645;;;-0.28;86.55
62632;BME280;48703;51.248;-0.546;2023-02-28T04:02:40;102647;;;-0.33;86.53
62632;BME280;48703;51.248;-0.546;2023-02-28T04:05:46;102640;;;-0.33;85.85
62632;BME280;48703;51.248;-0.546;2023-02-28T04:08:44;102637;;;-0.27;86.41
62632;BME280;48703;51.248;-0.546;2023-02-28T04:11:46;102647;;;-0.26;86.48
62632;BME280;48703;51.248;-0.546;2023-02-28T04:14:47;102647;;;-0.30;85.69
62632;BME280;48703;51.248;-0.546;2023-02-28T04:17:49;102649;;;-0.30;86.00
62632;BME280;48703;51.248;-0.546;2023-02-28T04:20:51;102652;;;-0.33;85.48
62632;BME280;48703;51.248;-0.546;2023-02-28T04:23:53;102652;;;-0.37;86.43
62632;BME280;48703;51.248;-0.546;2023-02-28T04:26:56;102649;;;-0.41;86.66
62632;BME280;48703;51.248;-0.546;2023-02-28T04:29:57;102651;;;-0.45;86.48
62632;BME280;48703;51.248;-0.546;2023-02-28T04:32:59;102654;;;-0.48;86.06
62632;BME280;48703;51.248;-0.546;2023-02-28T04:36:01;102654;;;-0.49;86.48
62632;BME280;48703;51.248;-0.546;2023-02-28T04:39:03;102663;;;-0.50;86.24
62632;BME280;48703;51.248;-0.546;2023-02-28T04:42:05;102672;;;-0.51;86.23
62632;BME280;48703;51.248;-0.546;2023-02-28T04:45:07;102671;;;-0.52;86.12
62632;BME280;48703;51.248;-0.546;2023-02-28T04:48:09;102673;;;-0.55;86.85
62632;BME280;48703;51.248;-0.546;2023-02-28T04:51:11;102670;;;-0.61;87.16
62632;BME280;48703;51.248;-0.546;2023-02-28T04:54:12;102680;;;-0.60;87.19
62632;BME280;48703;51.248;-0.546;2023-02-28T04:57:14;102684;;;-0.61;86.49
62632;BME280;48703;51.248;-0.546;2023-02-28T05:00:17;102682;;;-0.59;86.53
62632;BME280;48703;51.248;-0.546;2023-02-28T05:03:18;102685;;;-0.64;87.25
62632;BME280;48703;51.248;-0.546;2023-02-28T05:06:21;102683;;;-0.66;86.50
62632;BME280;48703;51.248;-0.546;2023-02-28T05:09:22;102689;;;-0.66;86.92
62632;BME280;48703;51.248;-0.546;2023-02-28T05:12:24;102687;;;-0.67;86.80
62632;BME280;48703;51.248;-0.546;2023-02-28T05:15:26;102686;;;-0.67;86.26
62632;BME280;48703;51.248;-0.546;2023-02-28T05:18:28;102690;;;-0.68;86.52
62632;BME280;48703;51.248;-0.546;2023-02-28T05:21:31;102690;;;-0.70;87.16
62632;BME280;48703;51.248;-0.546;2023-02-28T05:24:32;102688;;;-0.72;87.04
62632;BME280;48703;51.248;-0.546;2023-02-28T05:27:34;102689;;;-0.70;87.04
62632;BME280;48703;51.248;-0.546;2023-02-28T05:30:36;102690;;;-0.72;86.85
62632;BME280;48703;51.248;-0.546;2023-02-28T05:33:38;102694;;;-0.74;86.90
62632;BME280;48703;51.248;-0.546;2023-02-28T05:36:39;102696;;;-0.74;86.88
62632;BME280;48703;51.248;-0.546;2023-02-28T05:39:41;102698;;;-0.74;86.12
62632;BME280;48703;51.248;-0.546;2023-02-28T05:42:43;102697;;;-0.74;86.19
62632;BME280;48703;51.248;-0.546;2023-02-28T05:45:45;102698;;;-0.76;87.41
62632;BME280;48703;51.248;-0.546;2023-02-28T05:48:47;102699;;;-0.74;87.29
62632;BME280;48703;51.248;-0.546;2023-02-28T05:51:49;102698;;;-0.78;86.87
62632;BME280;48703;51.248;-0.546;2023-02-28T05:54:51;102698;;;-0.80;87.20
62632;BME280;48703;51.248;-0.546;2023-02-28T05:57:53;102700;;;-0.82;87.33
62632;BME280;48703;51.248;-0.546;2023-02-28T06:00:55;102702;;;-0.84;87.98
62632;BME280;48703;51.248;-0.546;2023-02-28T06:03:57;102704;;;-0.82;87.41
62632;BME280;48703;51.248;-0.546;2023-02-28T06:06:59;102700;;;-0.84;87.03
62632;BME280;48703;51.248;-0.546;2023-02-28T06:10:01;102701;;;-0.86;86.86
62632;BME280;48703;51.248;-0.546;2023-02-28T06:13:03;102702;;;-0.87;86.61
62632;BME280;48703;51.248;-0.546;2023-02-28T06:16:05;102700;;;-0.86;87.23
62632;BME280;48703;51.248;-0.546;2023-02-28T06:19:06;102701;;;-0.87;87.61
62632;BME280;48703;51.248;-0.546;2023-02-28T06:22:08;102704;;;-0.89;87.11
62632;BME280;48703;51.248;-0.546;2023-02-28T06:25:10;102703;;;-0.90;87.06
62632;BME280;48703;51.248;-0.546;2023-02-28T06:28:12;102703;;;-0.88;86.20
62632;BME280;48703;51.248;-0.546;2023-02-28T06:31:15;102700;;;-0.87;87.10
62632;BME280;48703;51.248;-0.546;2023-02-28T06:34:16;102700;;;-0.85;86.92
62632;BME280;48703;51.248;-0.546;2023-02-28T06:37:18;102702;;;-0.86;86.77
62632;BME280;48703;51.248;-0.546;2023-02-28T06:40:20;102703;;;-0.87;87.41
62632;BME280;48703;51.248;-0.546;2023-02-28T06:43:22;102703;;;-0.92;87.48
62632;BME280;48703;51.248;-0.546;2023-02-28T06:46:24;102705;;;-0.95;87.91
62632;BME280;48703;51.248;-0.546;2023-02-28T06:49:26;102706;;;-0.96;87.82
62632;BME280;48703;51.248;-0.546;2023-02-28T06:52:28;102710;;;-0.95;87.33
62632;BME280;48703;51.248;-0.546;2023-02-28T06:55:30;102710;;;-0.92;87.72
62632;BME280;48703;51.248;-0.546;2023-02-28T06:58:31;102710;;;-0.91;88.43
62632;BME280;48703;51.248;-0.546;2023-02-28T07:01:33;102714;;;-0.88;88.05
62632;BME280;48703;51.248;-0.546;2023-02-28T07:04:35;102713;;;-0.83;89.06
62632;BME280;48703;51.248;-0.546;2023-02-28T07:07:37;102713;;;-0.77;88.38
62632;BME280;48703;51.248;-0.546;2023-02-28T07:10:39;102714;;;-0.73;88.51
62632;BME280;48703;51.248;-0.546;2023-02-28T07:13:41;102713;;;-0.69;88.74
62632;BME280;48703;51.248;-0.546;2023-02-28T07:16:43;102718;;;-0.64;88.37
62632;BME280;48703;51.248;-0.546;2023-02-28T07:19:45;102720;;;-0.59;89.20
62632;BME280;48703;51.248;-0.546;2023-02-28T07:22:47;102720;;;-0.59;89.31
62632;BME280;48703;51.248;-0.546;2023-02-28T07:25:49;102723;;;-0.53;88.79
62632;BME280;48703;51.248;-0.546;2023-02-28T07:28:51;102724;;;-0.45;90.06
62632;BME280;48703;51.248;-0.546;2023-02-28T07:31:53;102721;;;-0.38;89.97
62632;BME280;48703;51.248;-0.546;2023-02-28T07:34:55;102713;;;-0.33;91.48
62632;BME280;48703;51.248;-0.546;2023-02-28T07:37:57;102713;;;-0.24;92.20
62632;BME280;48703;51.248;-0.546;2023-02-28T07:40:58;102712;;;-0.18;91.47
62632;BME280;48703;51.248;-0.546;2023-02-28T07:44:00;102711;;;-0.12;91.48
62632;BME280;48703;51.248;-0.546;2023-02-28T07:47:02;102713;;;-0.09;90.36
62632;BME280;48703;51.248;-0.546;2023-02-28T07:50:04;102713;;;-0.03;91.56
62632;BME280;48703;51.248;-0.546;2023-02-28T07:53:06;102714;;;0.01;90.75
62632;BME280;48703;51.248;-0.546;2023-02-28T07:56:08;102719;;;0.06;91.40
62632;BME280;48703;51.248;-0.546;2023-02-28T07:59:10;102721;;;0.08;90.61
62632;BME280;48703;51.248;-0.546;2023-02-28T08:02:12;102723;;;0.10;89.48
62632;BME280;48703;51.248;-0.546;2023-02-28T08:05:14;102723;;;0.14;89.25
62632;BME280;48703;51.248;-0.546;2023-02-28T08:08:16;102719;;;0.20;88.69
62632;BME280;48703;51.248;-0.546;2023-02-28T08:11:18;102722;;;0.20;89.83
62632;BME280;48703;51.248;-0.546;2023-02-28T08:14:20;102724;;;0.22;90.07
62632;BME280;48703;51.248;-0.546;2023-02-28T08:17:21;102722;;;0.25;90.71
62632;BME280;48703;51.248;-0.546;2023-02-28T08:20:24;102723;;;0.29;90.32
62632;BME280;48703;51.248;-0.546;2023-02-28T08:23:25;102725;;;0.34;91.44
62632;BME280;48703;51.248;-0.546;2023-02-28T08:26:27;102729;;;0.38;90.89
62632;BME280;48703;51.248;-0.546;2023-02-28T08:29:29;102729;;;0.41;91.85
62632;BME280;48703;51.248;-0.546;2023-02-28T08:32:31;102730;;;0.44;92.62
62632;BME280;48703;51.248;-0.546;2023-02-28T08:35:35;102727;;;0.45;92.64
62632;BME280;48703;51.248;-0.546;2023-02-28T08:38:35;102730;;;0.48;92.22
62632;BME280;48703;51.248;-0.546;2023-02-28T08:41:37;102734;;;0.54;91.94
62632;BME280;48703;51.248;-0.546;2023-02-28T08:44:39;102730;;;0.59;92.41
62632;BME280;48703;51.248;-0.546;2023-02-28T08:47:41;102730;;;0.68;92.76
62632;BME280;48703;51.248;-0.546;2023-02-28T08:50:43;102731;;;0.77;92.07
62632;BME280;48703;51.248;-0.546;2023-02-28T08:53:45;102730;;;0.90;93.25
62632;BME280;48703;51.248;-0.546;2023-02-28T08:56:47;102728;;;1.04;93.68
62632;BME280;48703;51.248;-0.546;2023-02-28T08:59:48;102727;;;1.17;93.82
62632;BME280;48703;51.248;-0.546;2023-02-28T09:02:50;102726;;;1.27;93.92
62632;BME280;48703;51.248;-0.546;2023-02-28T09:05:53;102726;;;1.36;93.56
62632;BME280;48703;51.248;-0.546;2023-02-28T09:08:55;102728;;;1.49;93.84
62632;BME280;48703;51.248;-0.546;2023-02-28T09:11:56;102726;;;1.60;93.40
62632;BME280;48703;51.248;-0.546;2023-02-28T09:14:58;102724;;;1.72;93.54
62632;BME280;48703;51.248;-0.546;2023-02-28T09:18:00;102726;;;1.84;93.88
62632;BME280;48703;51.248;-0.546;2023-02-28T09:21:02;102723;;;1.96;93.57
62632;BME280;48703;51.248;-0.546;2023-02-28T09:24:04;102715;;;2.09;92.95
62632;BME280;48703;51.248;-0.546;2023-02-28T09:27:06;102714;;;2.18;92.29
62632;BME280;48703;51.248;-0.546;2023-02-28T09:30:08;102710;;;2.27;92.08
62632;BME280;48703;51.248;-0.546;2023-02-28T09:33:10;102710;;;2.40;91.96
62632;BME280;48703;51.248;-0.546;2023-02-28T09:36:12;102708;;;2.51;91.50
62632;BME280;48703;51.248;-0.546;2023-02-28T09:39:14;102709;;;2.61;91.15
62632;BME280;48703;51.248;-0.546;2023-02-28T09:42:18;102707;;;2.72;90.65
62632;BME280;48703;51.248;-0.546;2023-02-28T09:45:19;102703;;;2.82;90.19
62632;BME280;48703;51.248;-0.546;2023-02-28T09:48:21;102702;;;2.91;89.92
62632;BME280;48703;51.248;-0.546;2023-02-28T09:51:32;102700;;;3.01;89.62
62632;BME280;48703;51.248;-0.546;2023-02-28T09:54:24;102698;;;3.14;89.42
62632;BME280;48703;51.248;-0.546;2023-02-28T09:57:27;102696;;;3.28;89.26
62632;BME280;48703;51.248;-0.546;2023-02-28T10:00:29;102698;;;3.38;88.75
62632;BME280;48703;51.248;-0.546;2023-02-28T10:03:30;102694;;;3.52;88.03
62632;BME280;48703;51.248;-0.546;2023-02-28T10:06:32;102693;;;3.62;87.45
62632;BME280;48703;51.248;-0.546;2023-02-28T10:09:33;102689;;;3.70;86.92
62632;BME280;48703;51.248;-0.546;2023-02-28T10:12:35;102687;;;3.79;87.10
62632;BME280;48703;51.248;-0.546;2023-02-28T10:15:37;102683;;;3.89;86.49
62632;BME280;48703;51.248;-0.546;2023-02-28T10:18:40;102685;;;3.94;86.52
62632;BME280;48703;51.248;-0.546;2023-02-28T10:21:42;102682;;;3.98;86.43
62632;BME280;48703;51.248;-0.546;2023-02-28T10:24:43;102682;;;4.06;86.34
62632;BME280;48703;51.248;-0.546;2023-02-28T10:27:44;102681;;;4.14;85.97
62632;BME280;48703;51.248;-0.546;2023-02-28T10:30:47;102676;;;4.22;84.67
62632;BME280;48703;51.248;-0.546;2023-02-28T10:33:48;102678;;;4.30;84.68
62632;BME280;48703;51.248;-0.546;2023-02-28T10:36:50;102677;;;4.37;84.37
62632;BME280;48703;51.248;-0.546;2023-02-28T10:39:52;102675;;;4.40;84.15
62632;BME280;48703;51.248;-0.546;2023-02-28T10:42:55;102669;;;4.45;84.06
62632;BME280;48703;51.248;-0.546;2023-02-28T10:45:57;102671;;;4.50;83.79
62632;BME280;48703;51.248;-0.546;2023-02-28T10:49:00;102666;;;4.56;83.51
62632;BME280;48703;51.248;-0.546;2023-02-28T10:52:00;102667;;;4.62;83.55
62632;BME280;48703;51.248;-0.546;2023-02-28T10:55:20;102669;;;4.66;83.98
62632;BME280;48703;51.248;-0.546;2023-02-28T10:58:07;102672;;;4.72;83.64
62632;BME280;48703;51.248;-0.546;2023-02-28T11:01:10;102671;;;4.75;83.56
62632;BME280;48703;51.248;-0.546;2023-02-28T11:04:40;102673;;;4.79;83.11
62632;BME280;48703;51.248;-0.546;2023-02-28T11:07:16;102666;;;4.83;83.06
62632;BME280;48703;51.248;-0.546;2023-02-28T11:10:16;102659;;;4.91;83.39
62632;BME280;48703;51.248;-0.546;2023-02-28T11:13:16;102658;;;4.96;82.95
62632;BME280;48703;51.248;-0.546;2023-02-28T11:16:15;102656;;;5.00;83.16
62632;BME280;48703;51.248;-0.546;2023-02-28T11:19:18;102655;;;5.02;82.60
62632;BME280;48703;51.248;-0.546;2023-02-28T11:22:20;102655;;;5.04;82.82
62632;BME280;48703;51.248;-0.546;2023-02-28T11:25:22;102658;;;5.05;82.99
62632;BME280;48703;51.248;-0.546;2023-02-28T11:28:24;102652;;;5.05;82.89
62632;BME280;48703;51.248;-0.546;2023-02-28T11:31:25;102654;;;5.06;82.91
62632;BME280;48703;51.248;-0.546;2023-02-28T11:34:27;102644;;;5.06;83.13
62632;BME280;48703;51.248;-0.546;2023-02-28T11:37:29;102641;;;5.06;83.09
62632;BME280;48703;51.248;-0.546;2023-02-28T11:40:34;102637;;;5.08;83.20
62632;BME280;48703;51.248;-0.546;2023-02-28T11:43:36;102638;;;5.10;83.21
62632;BME280;48703;51.248;-0.546;2023-02-28T11:46:36;102633;;;5.13;83.15
62632;BME280;48703;51.248;-0.546;2023-02-28T11:49:39;102631;;;5.15;83.12
62632;BME280;48703;51.248;-0.546;2023-02-28T11:52:40;102626;;;5.17;83.04
62632;BME280;48703;51.248;-0.546;2023-02-28T11:55:41;102616;;;5.20;83.11
62632;BME280;48703;51.248;-0.546;2023-02-28T11:58:45;102611;;;5.22;82.96
62632;BME280;48703;51.248;-0.546;2023-02-28T12:01:50;102604;;;5.24;83.11
62632;BME280;48703;51.248;-0.546;2023-02-28T12:04:48;102600;;;5.29;83.11
62632;BME280;48703;51.248;-0.546;2023-02-28T12:07:50;102584;;;5.32;83.20
62632;BME280;48703;51.248;-0.546;2023-02-28T12:10:53;102569;;;5.36;83.23
62632;BME280;48703;51.248;-0.546;2023-02-28T12:13:55;102575;;;5.41;83.34
62632;BME280;48703;51.248;-0.546;2023-02-28T12:16:57;102580;;;5.43;83.50
62632;BME280;48703;51.248;-0.546;2023-02-28T12:19:58;102577;;;5.46;83.45
62632;BME280;48703;51.248;-0.546;2023-02-28T12:23:01;102576;;;5.47;83.40
62632;BME280;48703;51.248;-0.546;2023-02-28T12:26:01;102581;;;5.48;83.51
62632;BME280;48703;51.248;-0.546;2023-02-28T12:29:02;102577;;;5.49;83.60
62632;BME280;48703;51.248;-0.546;2023-02-28T12:32:04;102571;;;5.52;83.59
62632;BME280;48703;51.248;-0.546;2023-02-28T12:35:06;102574;;;5.54;83.27
62632;BME280;48703;51.248;-0.546;2023-02-28T12:38:09;102566;;;5.57;83.44
62632;BME280;48703;51.248;-0.546;2023-02-28T12:41:10;102559;;;5.58;83.40
62632;BME280;48703;51.248;-0.546;2023-02-28T12:44:12;102557;;;5.59;83.37
62632;BME280;48703;51.248;-0.546;2023-02-28T12:47:14;102546;;;5.61;83.39
62632;BME280;48703;51.248;-0.546;2023-02-28T12:50:15;102538;;;5.64;83.26
62632;BME280;48703;51.248;-0.546;2023-02-28T12:53:18;102522;;;5.67;82.94
62632;BME280;48703;51.248;-0.546;2023-02-28T12:56:20;102519;;;5.69;82.95
62632;BME280;48703;51.248;-0.546;2023-02-28T12:59:23;102507;;;5.72;83.00
62632;BME280;48703;51.248;-0.546;2023-02-28T13:01:39;102499;;;5.74;82.93
62632;BME280;48703;51.248;-0.546;2023-02-28T13:04:43;102494;;;5.78;82.90
62632;BME280;48703;51.248;-0.546;2023-02-28T13:09:52;102491;;;5.81;82.97
62632;BME280;48703;51.248;-0.546;2023-02-28T13:10:39;102489;;;5.85;83.18
62632;BME280;48703;51.248;-0.546;2023-02-28T13:13:30;102490;;;5.89;82.90
62632;BME280;48703;51.248;-0.546;2023-02-28T13:16:51;102491;;;5.92;82.82
62632;BME280;48703;51.248;-0.546;2023-02-28T13:19:34;102485;;;5.95;82.82
62632;BME280;48703;51.248;-0.546;2023-02-28T13:22:39;102483;;;5.97;82.81
62632;BME280;48703;51.248;-0.546;2023-02-28T13:25:52;102478;;;5.99;82.90
62632;BME280;48703;51.248;-0.546;2023-02-28T13:28:58;102470;;;6.01;82.79
62632;BME280;48703;51.248;-0.546;2023-02-28T13:32:19;102470;;;6.03;82.90
62632;BME280;48703;51.248;-0.546;2023-02-28T13:34:46;102462;;;6.05;82.87
62632;BME280;48703;51.248;-0.546;2023-02-28T13:37:46;102463;;;6.07;82.91
62632;BME280;48703;51.248;-0.546;2023-02-28T13:40:47;102462;;;6.09;82.84
62632;BME280;48703;51.248;-0.546;2023-02-28T13:44:04;102458;;;6.09;82.80
62632;BME280;48703;51.248;-0.546;2023-02-28T13:47:23;102457;;;6.11;82.93
62632;BME280;48703;51.248;-0.546;2023-02-28T13:49:53;102455;;;6.11;82.80
62632;BME280;48703;51.248;-0.546;2023-02-28T13:53:02;102459;;;6.11;82.71
62632;BME280;48703;51.248;-0.546;2023-02-28T13:55:58;102458;;;6.12;82.70
62632;BME280;48703;51.248;-0.546;2023-02-28T13:59:01;102461;;;6.12;82.79
62632;BME280;48703;51.248;-0.546;2023-02-28T14:02:08;102456;;;6.11;83.03
62632;BME280;48703;51.248;-0.546;2023-02-28T14:05:05;102453;;;6.11;83.60
62632;BME280;48703;51.248;-0.546;2023-02-28T14:08:06;102453;;;6.12;83.79
62632;BME280;48703;51.248;-0.546;2023-02-28T14:11:08;102452;;;6.12;83.75
62632;BME280;48703;51.248;-0.546;2023-02-28T14:14:09;102449;;;6.11;83.65
62632;BME280;48703;51.248;-0.546;2023-02-28T14:17:12;102447;;;6.11;83.79
62632;BME280;48703;51.248;-0.546;2023-02-28T14:20:14;102442;;;6.13;83.76
62632;BME280;48703;51.248;-0.546;2023-02-28T14:23:16;102435;;;6.13;83.57
62632;BME280;48703;51.248;-0.546;2023-02-28T14:26:19;102432;;;6.13;83.65
62632;BME280;48703;51.248;-0.546;2023-02-28T14:29:28;102427;;;6.13;83.55
62632;BME280;48703;51.248;-0.546;2023-02-28T14:32:25;102423;;;6.13;83.37
62632;BME280;48703;51.248;-0.546;2023-02-28T14:35:29;102418;;;6.14;83.55
62632;BME280;48703;51.248;-0.546;2023-02-28T14:38:24;102414;;;6.15;83.60
62632;BME280;48703;51.248;-0.546;2023-02-28T14:41:28;102414;;;6.17;83.51
62632;BME280;48703;51.248;-0.546;2023-02-28T14:44:27;102414;;;6.18;83.47
62632;BME280;48703;51.248;-0.546;2023-02-28T14:47:30;102408;;;6.19;83.07
62632;BME280;48703;51.248;-0.546;2023-02-28T14:50:32;102403;;;6.20;82.89
62632;BME280;48703;51.248;-0.546;2023-02-28T14:53:35;102396;;;6.23;83.03
62632;BME280;48703;51.248;-0.546;2023-02-28T14:56:36;102394;;;6.27;82.89
62632;BME280;48703;51.248;-0.546;2023-02-28T14:59:37;102392;;;6.31;82.73
62632;BME280;48703;51.248;-0.546;2023-02-28T15:02:39;102389;;;6.33;82.47
62632;BME280;48703;51.248;-0.546;2023-02-28T15:05:41;102385;;;6.34;82.05
62632;BME280;48703;51.248;-0.546;2023-02-28T15:08:43;102381;;;6.36;81.97
62632;BME280;48703;51.248;-0.546;2023-02-28T15:11:46;102380;;;6.37;81.82
62632;BME280;48703;51.248;-0.546;2023-02-28T15:14:47;102379;;;6.38;81.66
62632;BME280;48703;51.248;-0.546;2023-02-28T15:17:49;102379;;;6.39;81.53
62632;BME280;48703;51.248;-0.546;2023-02-28T15:20:51;102380;;;6.41;81.04
62632;BME280;48703;51.248;-0.546;2023-02-28T15:23:53;102381;;;6.41;81.10
62632;BME280;48703;51.248;-0.546;2023-02-28T15:26:55;102378;;;6.42;81.12
62632;BME280;48703;51.248;-0.546;2023-02-28T15:29:57;102379;;;6.43;80.84
62632;BME280;48703;51.248;-0.546;2023-02-28T15:33:04;102381;;;6.44;80.62
62632;BME280;48703;51.248;-0.546;2023-02-28T15:36:11;102384;;;6.44;80.53
62632;BME280;48703;51.248;-0.546;2023-02-28T15:39:03;102380;;;6.44;80.59
62632;BME280;48703;51.248;-0.546;2023-02-28T15:42:10;102379;;;6.44;80.69
62632;BME280;48703;51.248;-0.546;2023-02-28T15:45:25;102376;;;6.44;80.48
62632;BME280;48703;51.248;-0.546;2023-02-28T15:48:14;102371;;;6.44;80.49
62632;BME280;48703;51.248;-0.546;2023-02-28T15:51:14;102376;;;6.44;80.16
62632;BME280;48703;51.248;-0.546;2023-02-28T15:54:12;102375;;;6.44;80.52
62632;BME280;48703;51.248;-0.546;2023-02-28T15:57:15;102374;;;6.43;80.16
62632;BME280;48703;51.248;-0.546;2023-02-28T16:00:18;102378;;;6.43;80.23
62632;BME280;48703;51.248;-0.546;2023-02-28T16:03:41;102379;;;6.43;80.56
62632;BME280;48703;51.248;-0.546;2023-02-28T16:06:23;102381;;;6.43;80.49
62632;BME280;48703;51.248;-0.546;2023-02-28T16:09:21;102385;;;6.42;80.77
62632;BME280;48703;51.248;-0.546;2023-02-28T16:12:25;102382;;;6.42;80.91
62632;BME280;48703;51.248;-0.546;2023-02-28T16:15:26;102383;;;6.42;81.19
62632;BME280;48703;51.248;-0.546;2023-02-28T16:18:27;102380;;;6.41;80.97
62632;BME280;48703;51.248;-0.546;2023-02-28T16:21:29;102376;;;6.41;81.28
62632;BME280;48703;51.248;-0.546;2023-02-28T16:24:31;102373;;;6.41;81.20